Time;durP1;ratioP1;P1;durP2;ratioP2;P2;SDS_P1;SDS_P2;PMS_P1;PMS_P2;Temp;Humidity;BMP_temperature;BMP_pressure;BME280_temperature;BME280_humidity;BME280_pressure;Samples;Min_cycle;Max_cycle;Signal;HPM_P1;HPM_P2
2021/03/02 00:01:05;;;;;;;42.33;24.42;;;5.90;94.60;;;;;;5064623;28;20062;-40
2021/03/02 00:03:37;;;;;;;41.38;24.35;;;5.90;94.70;;;;;;5065064;28;20585;-41
2021/03/02 00:06:04;;;;;;;38.10;22.42;;;5.90;94.70;;;;;;5062866;28;20294;-39
2021/03/02 00:08:30;;;;;;;45.00;24.77;;;5.90;94.70;;;;;;5065021;28;20107;-40
2021/03/02 00:10:58;;;;;;;44.22;23.95;;;5.90;94.80;;;;;;5064779;28;20494;-40
2021/03/02 00:13:24;;;;;;;42.13;24.02;;;5.80;94.80;;;;;;5064899;28;20056;-40
2021/03/02 00:15:49;;;;;;;43.35;24.63;;;5.80;94.80;;;;;;5064753;28;20095;-39
2021/03/02 00:18:18;;;;;;;39.53;23.38;;;5.80;94.80;;;;;;5065299;28;20028;-40
2021/03/02 00:20:48;;;;;;;44.67;23.52;;;5.80;94.80;;;;;;5064235;28;20198;-39
2021/03/02 00:23:28;;;;;;;40.95;23.98;;;5.80;94.90;;;;;;5064503;28;20107;-38
2021/03/02 00:26:03;;;;;;;43.78;23.95;;;5.80;94.90;;;;;;5063959;28;20032;-38
2021/03/02 00:28:29;;;;;;;40.90;23.15;;;5.70;94.90;;;;;;5054577;28;20024;-38
2021/03/02 00:30:55;;;;;;;41.00;23.52;;;5.80;95.00;;;;;;5065097;28;20034;-39
2021/03/02 00:33:22;;;;;;;42.90;24.48;;;5.70;95.00;;;;;;5063746;28;20475;-38
2021/03/02 00:35:48;;;;;;;41.22;23.33;;;5.70;95.00;;;;;;5064903;28;20025;-40
2021/03/02 00:38:14;;;;;;;44.10;23.92;;;5.70;95.00;;;;;;5064658;28;20028;-37
2021/03/02 00:40:39;;;;;;;46.30;24.00;;;5.70;95.00;;;;;;5064600;28;20036;-39
2021/03/02 00:43:05;;;;;;;40.53;23.08;;;5.70;95.30;;;;;;5064490;28;20804;-38
2021/03/02 00:45:31;;;;;;;42.00;23.00;;;5.60;95.10;;;;;;5064523;28;20036;-38
2021/03/02 00:47:57;;;;;;;40.63;22.23;;;5.60;95.10;;;;;;5064009;28;20031;-39
2021/03/02 00:50:27;;;;;;;36.53;21.27;;;5.60;95.10;;;;;;5064312;28;20056;-40
2021/03/02 00:53:08;;;;;;;35.88;20.75;;;5.60;95.10;;;;;;5064346;28;20025;-39
2021/03/02 00:55:34;;;;;;;37.38;21.65;;;5.60;95.10;;;;;;5063470;28;20127;-40
2021/03/02 00:57:59;;;;;;;39.38;22.15;;;5.60;95.10;;;;;;5064558;28;20254;-38
2021/03/02 01:00:25;;;;;;;38.03;22.83;;;5.50;95.10;;;;;;5064605;28;20028;-39
2021/03/02 01:02:50;;;;;;;43.13;24.08;;;5.50;95.20;;;;;;5063751;28;20131;-39
2021/03/02 01:05:17;;;;;;;41.13;23.73;;;5.50;95.20;;;;;;5064385;28;20025;-40
2021/03/02 01:07:42;;;;;;;39.53;23.42;;;5.50;95.20;;;;;;5065749;28;20025;-39
2021/03/02 01:10:12;;;;;;;41.28;23.23;;;5.50;95.30;;;;;;5067720;28;20036;-40
2021/03/02 01:12:38;;;;;;;40.90;23.73;;;5.50;95.30;;;;;;5068344;28;20029;-40
2021/03/02 01:15:06;;;;;;;41.33;23.58;;;5.50;95.30;;;;;;5065881;28;20044;-38
2021/03/02 01:17:32;;;;;;;37.22;21.63;;;5.50;95.30;;;;;;5067769;28;20044;-41
2021/03/02 01:19:57;;;;;;;41.88;23.40;;;5.40;95.30;;;;;;5067763;28;20615;-40
2021/03/02 01:22:23;;;;;;;40.10;23.83;;;5.40;95.30;;;;;;5067522;28;20111;-36
2021/03/02 01:24:49;;;;;;;40.20;22.92;;;5.40;95.30;;;;;;5067796;28;20490;-40
2021/03/02 01:27:15;;;;;;;43.22;24.00;;;5.40;95.40;;;;;;5067739;28;20021;-40
2021/03/02 01:29:41;;;;;;;40.33;22.55;;;5.30;95.40;;;;;;5067236;28;20036;-40
2021/03/02 01:32:06;;;;;;;39.67;23.65;;;5.40;95.40;;;;;;5067786;28;20028;-41
2021/03/02 01:34:32;;;;;;;40.78;23.33;;;5.30;95.40;;;;;;5067804;28;20021;-40
2021/03/02 01:36:59;;;;;;;43.20;23.58;;;5.30;95.40;;;;;;5067706;28;20499;-40
2021/03/02 01:39:24;;;;;;;37.55;22.13;;;5.30;95.50;;;;;;5067687;28;20112;-40
2021/03/02 01:41:55;;;;;;;39.47;22.00;;;5.30;95.50;;;;;;5067659;28;20142;-39
2021/03/02 01:44:20;;;;;;;38.17;20.20;;;5.20;95.50;;;;;;5067209;28;20028;-42
2021/03/02 01:46:50;;;;;;;42.65;24.08;;;5.20;95.50;;;;;;5067666;28;20036;-40
2021/03/02 01:49:16;;;;;;;43.08;23.75;;;5.20;95.50;;;;;;5066868;28;20040;-40
2021/03/02 01:51:42;;;;;;;45.70;24.35;;;5.20;95.60;;;;;;5066729;28;20040;-40
2021/03/02 01:54:09;;;;;;;45.15;24.75;;;5.10;95.80;;;;;;5067400;28;20114;-40
2021/03/02 01:56:35;;;;;;;40.78;23.48;;;5.10;95.60;;;;;;5067575;28;20090;-40
2021/03/02 01:59:01;;;;;;;45.08;24.23;;;5.10;95.60;;;;;;5067125;28;20036;-40
2021/03/02 02:01:27;;;;;;;43.03;23.83;;;5.10;95.60;;;;;;5067128;28;20384;-39
2021/03/02 02:04:08;;;;;;;41.20;22.67;;;5.10;95.70;;;;;;5066184;28;20020;-38
2021/03/02 02:06:43;;;;;;;45.17;24.25;;;5.00;95.70;;;;;;5066311;28;20024;-41
2021/03/02 02:09:18;;;;;;;46.15;23.88;;;5.00;95.70;;;;;;5066175;28;20111;-40
2021/03/02 02:12:13;;;;;;;41.10;23.85;;;5.00;95.70;;;;;;5066566;28;20025;-40
2021/03/02 02:14:45;;;;;;;46.00;23.60;;;5.00;95.80;;;;;;5066366;28;20056;-40
2021/03/02 02:17:33;;;;;;;41.88;24.40;;;5.00;95.80;;;;;;5067177;28;20025;-38
2021/03/02 02:20:05;;;;;;;47.28;24.02;;;4.90;95.80;;;;;;5065372;28;20107;-41
2021/03/02 02:22:57;;;;;;;40.40;23.17;;;4.90;95.80;;;;;;5066589;28;20458;-41
2021/03/02 02:25:45;;;;;;;44.22;24.85;;;4.90;95.90;;;;;;5066419;28;20069;-39
2021/03/02 02:28:13;;;;;;;47.60;24.77;;;4.90;95.90;;;;;;5066522;28;20043;-38
2021/03/02 02:30:41;;;;;;;43.17;23.88;;;4.90;95.90;;;;;;5066107;28;20445;-39
2021/03/02 02:33:09;;;;;;;40.22;23.08;;;4.90;96.00;;;;;;5065977;28;20487;-39
2021/03/02 02:35:38;;;;;;;43.85;24.17;;;4.80;95.90;;;;;;5066544;28;20106;-41
2021/03/02 02:38:05;;;;;;;39.47;22.20;;;4.80;96.00;;;;;;5066016;28;20500;-39
2021/03/02 02:40:31;;;;;;;39.05;20.63;;;4.80;96.00;;;;;;5065854;28;20044;-39
2021/03/02 02:42:58;;;;;;;37.38;21.85;;;4.80;96.00;;;;;;5066781;28;20150;-38
2021/03/02 02:45:24;;;;;;;37.92;23.05;;;4.70;96.00;;;;;;5065864;28;20107;-41
2021/03/02 02:47:51;;;;;;;45.03;25.00;;;4.70;96.00;;;;;;5066100;28;20024;-40
2021/03/02 02:50:17;;;;;;;40.15;23.58;;;4.70;96.00;;;;;;5065803;28;20076;-39
2021/03/02 02:52:44;;;;;;;43.13;23.48;;;4.70;96.10;;;;;;5065843;28;20112;-39
2021/03/02 02:55:12;;;;;;;40.33;23.17;;;4.70;96.10;;;;;;5066282;28;20032;-39
2021/03/02 02:57:44;;;;;;;45.50;24.90;;;4.70;96.10;;;;;;5066021;28;20034;-40
2021/03/02 03:00:11;;;;;;;45.42;25.33;;;4.70;96.20;;;;;;5065853;28;20494;-40
2021/03/02 03:02:40;;;;;;;45.95;25.08;;;4.70;96.20;;;;;;5065527;28;20480;-39
2021/03/02 03:05:14;;;;;;;46.15;25.60;;;4.70;96.20;;;;;;5066261;28;20399;-38
2021/03/02 03:07:46;;;;;;;43.75;25.05;;;4.70;96.20;;;;;;5065164;28;20357;-38
2021/03/02 03:10:12;;;;;;;49.70;26.25;;;4.60;96.20;;;;;;5046183;28;20087;-39
2021/03/02 03:12:42;;;;;;;44.55;24.45;;;4.60;96.30;;;;;;5060242;28;20032;-39
2021/03/02 03:15:09;;;;;;;45.30;26.13;;;4.60;96.30;;;;;;5065516;28;20490;-38
2021/03/02 03:17:43;;;;;;;44.00;25.17;;;4.60;96.30;;;;;;5065180;28;20429;-39
2021/03/02 03:20:11;;;;;;;43.40;23.95;;;4.60;96.40;;;;;;5065703;28;20040;-39
2021/03/02 03:22:38;;;;;;;42.08;24.83;;;4.50;96.30;;;;;;5065137;28;20024;-40
2021/03/02 03:25:06;;;;;;;43.72;24.13;;;4.50;96.30;;;;;;5066016;28;20142;-40
2021/03/02 03:27:34;;;;;;;46.33;25.48;;;4.50;96.30;;;;;;5065075;28;20064;-38
2021/03/02 03:30:01;;;;;;;48.35;25.77;;;4.50;96.40;;;;;;5064988;28;20123;-40
2021/03/02 03:32:28;;;;;;;46.72;25.50;;;4.50;96.40;;;;;;5065330;28;20017;-43
2021/03/02 03:34:54;;;;;;;45.97;25.50;;;4.50;96.40;;;;;;5065624;28;20044;-39
2021/03/02 03:37:20;;;;;;;43.22;24.00;;;4.40;96.40;;;;;;5064669;28;20103;-39
2021/03/02 03:39:47;;;;;;;46.72;26.05;;;4.50;96.50;;;;;;5065161;28;20562;-39
2021/03/02 03:42:12;;;;;;;45.92;24.65;;;4.40;96.50;;;;;;5065544;28;20037;-40
2021/03/02 03:44:38;;;;;;;46.15;24.67;;;4.40;96.50;;;;;;5064703;28;20094;-39
2021/03/02 03:47:04;;;;;;;41.42;23.80;;;4.40;96.50;;;;;;5065398;28;20036;-40
2021/03/02 03:49:30;;;;;;;42.75;24.25;;;4.40;96.50;;;;;;5064662;28;20033;-40
2021/03/02 03:51:58;;;;;;;47.67;25.90;;;4.40;96.50;;;;;;5064849;28;20074;-39
2021/03/02 03:54:29;;;;;;;47.08;25.50;;;4.30;96.50;;;;;;5064877;28;20051;-39
2021/03/02 03:56:54;;;;;;;49.13;26.08;;;4.30;96.50;;;;;;5064799;28;20078;-39
2021/03/02 03:59:25;;;;;;;42.92;23.55;;;4.30;96.60;;;;;;5064955;28;20032;-38
2021/03/02 04:01:52;;;;;;;50.53;25.35;;;4.30;96.60;;;;;;5064750;28;20668;-38
2021/03/02 04:04:20;;;;;;;47.90;27.10;;;4.30;96.60;;;;;;5064732;28;20033;-38
2021/03/02 04:06:47;;;;;;;51.03;27.25;;;4.20;96.60;;;;;;5064933;28;20036;-40
2021/03/02 04:09:13;;;;;;;43.45;23.95;;;4.20;96.70;;;;;;5064414;28;20078;-39
2021/03/02 04:11:39;;;;;;;47.72;26.67;;;4.20;96.70;;;;;;5064496;28;20032;-39
2021/03/02 04:14:05;;;;;;;51.58;29.27;;;4.20;96.70;;;;;;5064470;28;20024;-40
2021/03/02 04:16:32;;;;;;;45.85;25.30;;;4.20;96.70;;;;;;5064851;28;20570;-44
2021/03/02 04:18:57;;;;;;;48.88;25.88;;;4.20;96.80;;;;;;5064681;28;20104;-39
2021/03/02 04:21:23;;;;;;;47.42;24.70;;;4.20;96.80;;;;;;5064387;28;20134;-40
2021/03/02 04:23:49;;;;;;;46.72;24.48;;;4.20;96.80;;;;;;5064920;28;20046;-40
2021/03/02 04:26:27;;;;;;;44.60;23.50;;;4.20;96.80;;;;;;5064469;28;20118;-41
2021/03/02 04:28:52;;;;;;;47.60;24.58;;;4.20;96.80;;;;;;5064920;28;20093;-41
2021/03/02 04:31:17;;;;;;;43.60;23.92;;;4.20;96.80;;;;;;5064546;28;20051;-39
2021/03/02 04:33:43;;;;;;;40.58;23.13;;;4.20;96.80;;;;;;5064289;28;20364;-40
2021/03/02 04:36:11;;;;;;;46.65;26.40;;;4.20;96.80;;;;;;5064885;28;20115;-40
2021/03/02 04:38:37;;;;;;;44.10;23.90;;;4.10;96.80;;;;;;5064811;28;20075;-39
2021/03/02 04:41:03;;;;;;;42.40;24.00;;;4.20;96.90;;;;;;5064279;28;20650;-40
2021/03/02 04:43:28;;;;;;;46.97;25.52;;;4.10;96.90;;;;;;5068715;28;20029;-41
2021/03/02 04:45:54;;;;;;;47.28;23.75;;;4.10;96.90;;;;;;5068227;28;20549;-39
2021/03/02 04:48:20;;;;;;;47.15;25.35;;;4.10;96.90;;;;;;5068357;28;20604;-39
2021/03/02 04:50:45;;;;;;;42.40;23.88;;;4.10;96.90;;;;;;5067667;28;20139;-39
2021/03/02 04:53:11;;;;;;;45.33;25.02;;;4.10;96.90;;;;;;5067960;28;20061;-39
2021/03/02 04:55:37;;;;;;;44.70;24.17;;;4.10;96.90;;;;;;5068245;28;20391;-41
2021/03/02 04:58:02;;;;;;;41.78;23.33;;;4.10;96.90;;;;;;5068375;28;20029;-40
2021/03/02 05:00:28;;;;;;;45.28;24.08;;;4.10;96.90;;;;;;5067895;28;20036;-39
2021/03/02 05:02:54;;;;;;;45.38;23.40;;;4.10;96.90;;;;;;5068208;28;20123;-39
2021/03/02 05:05:19;;;;;;;39.30;22.63;;;4.10;96.90;;;;;;5068525;28;20039;-40
2021/03/02 05:07:45;;;;;;;41.13;22.23;;;4.10;96.90;;;;;;5067230;28;20115;-39
2021/03/02 05:10:11;;;;;;;45.90;22.70;;;4.10;96.90;;;;;;5067637;28;20113;-38
2021/03/02 05:12:36;;;;;;;40.60;22.95;;;4.10;96.90;;;;;;5067791;28;20020;-39
2021/03/02 05:15:03;;;;;;;41.15;22.55;;;4.10;96.90;;;;;;5067340;28;20558;-38
2021/03/02 05:17:29;;;;;;;41.13;22.50;;;4.00;96.90;;;;;;5067687;28;20024;-39
2021/03/02 05:19:54;;;;;;;43.17;24.85;;;4.00;96.90;;;;;;5068061;28;20394;-39
2021/03/02 05:22:20;;;;;;;40.20;23.27;;;4.00;96.90;;;;;;5066981;28;20020;-40
2021/03/02 05:24:45;;;;;;;41.58;22.90;;;4.00;96.90;;;;;;5067738;28;20127;-40
2021/03/02 05:27:11;;;;;;;39.28;22.13;;;4.00;96.90;;;;;;5067824;28;20097;-39
2021/03/02 05:29:36;;;;;;;40.33;22.02;;;4.00;97.00;;;;;;5067065;28;20040;-40
2021/03/02 05:32:06;;;;;;;44.20;23.55;;;4.00;97.00;;;;;;5067519;28;20012;-41
2021/03/02 05:34:32;;;;;;;43.10;23.40;;;3.90;97.00;;;;;;5067383;28;20428;-39
2021/03/02 05:36:58;;;;;;;42.20;23.75;;;3.90;97.00;;;;;;5066595;28;20074;-40
2021/03/02 05:39:23;;;;;;;48.28;26.05;;;3.90;97.00;;;;;;5067803;28;20036;-40
2021/03/02 05:41:50;;;;;;;42.83;25.52;;;3.90;97.00;;;;;;5067212;28;20038;-37
2021/03/02 05:44:16;;;;;;;43.55;23.23;;;3.90;97.10;;;;;;5066950;28;20077;-40
2021/03/02 05:46:42;;;;;;;42.85;23.73;;;3.90;97.10;;;;;;5067528;28;20047;-39
2021/03/02 05:49:12;;;;;;;50.25;26.17;;;3.90;97.10;;;;;;5054331;28;20436;-39
2021/03/02 05:51:42;;;;;;;47.75;25.83;;;3.90;97.10;;;;;;5064708;28;20143;-38
2021/03/02 05:54:09;;;;;;;46.83;24.85;;;3.90;97.20;;;;;;5064487;28;20031;-40
2021/03/02 05:56:41;;;;;;;45.28;25.25;;;3.90;97.20;;;;;;5065491;28;20128;-39
2021/03/02 05:59:08;;;;;;;48.35;25.58;;;3.90;97.20;;;;;;5062876;28;20027;-40
2021/03/02 06:01:33;;;;;;;45.67;25.25;;;3.90;97.20;;;;;;5067505;28;20103;-40
2021/03/02 06:04:00;;;;;;;45.53;25.45;;;3.90;97.20;;;;;;5066308;28;20412;-38
2021/03/02 06:06:25;;;;;;;46.17;25.58;;;3.90;97.20;;;;;;5070997;28;20085;-39
2021/03/02 06:08:51;;;;;;;44.00;24.85;;;3.90;97.20;;;;;;5077138;28;20036;-38
2021/03/02 06:11:23;;;;;;;42.83;24.60;;;3.90;97.20;;;;;;5066539;28;20139;-39
2021/03/02 06:13:49;;;;;;;43.45;24.92;;;3.90;97.20;;;;;;5066483;28;20455;-39
2021/03/02 06:16:15;;;;;;;44.17;24.27;;;3.90;97.20;;;;;;5068217;28;20035;-39
2021/03/02 06:18:47;;;;;;;44.22;25.23;;;3.90;97.20;;;;;;5068244;28;20483;-40
2021/03/02 06:21:13;;;;;;;42.25;24.25;;;3.90;97.30;;;;;;5066601;28;20028;-39
2021/03/02 06:23:47;;;;;;;43.13;24.48;;;3.90;97.30;;;;;;5078639;28;20043;-39
2021/03/02 06:26:26;;;;;;;47.30;27.08;;;3.90;97.30;;;;;;5078000;28;20069;-39
2021/03/02 06:28:56;;;;;;;42.80;24.05;;;3.90;97.30;;;;;;5079885;28;20077;-37
2021/03/02 06:31:35;;;;;;;42.92;24.55;;;4.00;97.30;;;;;;5076945;28;20044;-39
2021/03/02 06:34:06;;;;;;;44.03;26.00;;;3.90;97.30;;;;;;5058321;28;20048;-37
2021/03/02 06:36:32;;;;;;;41.65;25.02;;;4.00;97.30;;;;;;5065052;28;20078;-39
2021/03/02 06:38:58;;;;;;;44.17;25.40;;;4.00;97.30;;;;;;5065173;28;20454;-39
2021/03/02 06:41:23;;;;;;;43.60;25.90;;;4.00;97.30;;;;;;5065954;28;20404;-40
2021/03/02 06:43:49;;;;;;;43.20;24.92;;;4.00;97.30;;;;;;5065413;28;20139;-40
2021/03/02 06:46:15;;;;;;;39.03;24.08;;;4.00;97.30;;;;;;5057990;28;20028;-40
2021/03/02 06:48:51;;;;;;;42.60;25.40;;;4.10;97.30;;;;;;5063691;28;20039;-38
2021/03/02 06:51:32;;;;;;;37.90;23.25;;;4.10;97.30;;;;;;5053745;28;20045;-39
2021/03/02 06:54:10;;;;;;;42.90;25.15;;;4.10;97.30;;;;;;5064105;28;20058;-39
2021/03/02 06:56:39;;;;;;;39.55;23.00;;;4.10;97.30;;;;;;5054883;28;20388;-39
2021/03/02 06:59:22;;;;;;;39.30;23.88;;;4.10;97.20;;;;;;5062341;28;20479;-38
2021/03/02 07:01:48;;;;;;;37.58;23.15;;;4.10;97.20;;;;;;5062061;28;20043;-39
2021/03/02 07:04:16;;;;;;;38.05;21.77;;;4.20;97.20;;;;;;5064713;28;20050;-42
2021/03/02 07:06:42;;;;;;;37.13;22.52;;;4.20;97.20;;;;;;5064717;28;20020;-40
2021/03/02 07:09:10;;;;;;;36.10;22.25;;;4.20;97.20;;;;;;5064999;28;20039;-39
2021/03/02 07:11:37;;;;;;;39.00;23.67;;;4.20;97.20;;;;;;5064890;28;20072;-40
2021/03/02 07:14:05;;;;;;;38.60;22.70;;;4.30;97.20;;;;;;5064477;28;20025;-41
2021/03/02 07:16:52;;;;;;;42.28;23.73;;;4.30;97.20;;;;;;5064699;28;20479;-40
2021/03/02 07:19:20;;;;;;;35.90;21.42;;;4.40;97.10;;;;;;5064798;28;20487;-39
2021/03/02 07:21:57;;;;;;;38.45;23.70;;;4.40;97.10;;;;;;5065318;28;20047;-39
2021/03/02 07:24:26;;;;;;;33.05;21.10;;;4.40;97.00;;;;;;5065351;28;20029;-39
2021/03/02 07:26:57;;;;;;;35.05;21.63;;;4.50;97.00;;;;;;5064539;28;20020;-37
2021/03/02 07:29:23;;;;;;;33.35;20.48;;;4.50;97.00;;;;;;5065290;28;20471;-37
2021/03/02 07:31:49;;;;;;;39.17;22.48;;;4.60;97.00;;;;;;5065379;28;20035;-40
2021/03/02 07:34:14;;;;;;;41.50;23.30;;;4.60;96.90;;;;;;5065618;28;20399;-39
2021/03/02 07:36:43;;;;;;;34.90;21.42;;;4.70;96.90;;;;;;5065446;28;20035;-40
2021/03/02 07:39:17;;;;;;;39.20;21.95;;;4.70;96.80;;;;;;5045422;28;20517;-39
2021/03/02 07:41:45;;;;;;;36.20;22.55;;;4.70;96.80;;;;;;5060690;28;20035;-39
2021/03/02 07:44:10;;;;;;;35.53;21.77;;;4.80;96.70;;;;;;5065193;28;20114;-39
2021/03/02 07:46:42;;;;;;;34.78;20.60;;;4.80;96.70;;;;;;5064607;28;20400;-38
2021/03/02 07:49:28;;;;;;;34.53;20.63;;;4.90;96.60;;;;;;5064504;28;20543;-39
2021/03/02 07:51:59;;;;;;;36.28;20.48;;;4.90;96.60;;;;;;5064267;28;20110;-39
2021/03/02 07:54:26;;;;;;;36.38;21.73;;;5.00;96.50;;;;;;5063704;28;20085;-39
2021/03/02 07:57:16;;;;;;;33.15;20.40;;;5.00;96.40;;;;;;5064763;28;20127;-39
2021/03/02 07:59:43;;;;;;;35.03;21.77;;;5.10;96.40;;;;;;5065005;28;20026;-39
2021/03/02 08:02:19;;;;;;;33.10;20.67;;;5.10;96.40;;;;;;5064702;28;20021;-39
2021/03/02 08:04:46;;;;;;;33.25;20.35;;;5.20;96.30;;;;;;5064692;28;20048;-38
2021/03/02 08:07:28;;;;;;;31.95;19.25;;;5.20;96.20;;;;;;5064586;28;20016;-40
2021/03/02 08:09:56;;;;;;;30.95;19.30;;;5.30;96.20;;;;;;5066005;28;20029;-41
2021/03/02 08:12:26;;;;;;;32.72;19.88;;;5.30;96.20;;;;;;5065648;28;20103;-42
2021/03/02 08:14:51;;;;;;;34.10;19.83;;;5.40;96.10;;;;;;5065903;28;20214;-40
2021/03/02 08:17:22;;;;;;;33.88;20.75;;;5.40;96.00;;;;;;5064597;28;20495;-40
2021/03/02 08:19:48;;;;;;;31.27;20.27;;;5.50;95.90;;;;;;5066054;28;20025;-39
2021/03/02 08:22:20;;;;;;;32.40;19.25;;;5.50;95.90;;;;;;5065581;28;20107;-43
2021/03/02 08:25:09;;;;;;;30.65;19.90;;;5.60;95.80;;;;;;5065514;28;20457;-40
2021/03/02 08:27:44;;;;;;;31.40;19.08;;;5.70;95.70;;;;;;5065610;28;20016;-40
2021/03/02 08:30:13;;;;;;;30.60;19.65;;;5.70;95.60;;;;;;5064000;28;20036;-40
2021/03/02 08:32:40;;;;;;;32.95;20.08;;;5.80;95.50;;;;;;5062949;28;20029;-45
2021/03/02 08:35:12;;;;;;;29.60;18.25;;;5.80;95.50;;;;;;5059369;28;20098;-40
2021/03/02 08:37:42;;;;;;;32.60;19.63;;;5.90;95.50;;;;;;5064877;28;20032;-39
2021/03/02 08:40:10;;;;;;;31.85;19.42;;;5.90;95.40;;;;;;5065046;28;20269;-40
2021/03/02 08:42:36;;;;;;;30.27;19.05;;;6.00;95.30;;;;;;5065910;28;20033;-39
2021/03/02 08:45:09;;;;;;;29.80;19.77;;;6.10;95.20;;;;;;5065675;28;20472;-39
2021/03/02 08:47:36;;;;;;;28.83;19.08;;;6.10;95.00;;;;;;5065225;28;20143;-40
2021/03/02 08:50:04;;;;;;;31.15;20.25;;;6.20;94.90;;;;;;5065531;28;20040;-41
2021/03/02 08:52:37;;;;;;;31.38;18.85;;;6.20;94.70;;;;;;5065352;28;20041;-40
2021/03/02 08:55:04;;;;;;;25.67;16.75;;;6.30;94.70;;;;;;5064578;28;20095;-40
2021/03/02 08:57:29;;;;;;;30.52;18.80;;;6.30;94.70;;;;;;5065240;28;20377;-42
2021/03/02 08:59:55;;;;;;;24.30;16.20;;;6.30;94.60;;;;;;5065292;28;20112;-38
2021/03/02 09:02:21;;;;;;;24.67;16.33;;;6.40;94.50;;;;;;5065792;28;20055;-41
2021/03/02 09:04:46;;;;;;;27.40;17.58;;;6.40;94.40;;;;;;5064769;28;20518;-41
2021/03/02 09:07:22;;;;;;;25.73;16.95;;;6.50;94.40;;;;;;5064860;28;20116;-41
2021/03/02 09:09:47;;;;;;;22.70;15.75;;;6.60;94.30;;;;;;5064737;28;20041;-41
2021/03/02 09:12:13;;;;;;;24.85;17.33;;;6.60;94.30;;;;;;5064650;28;20025;-41
2021/03/02 09:14:42;;;;;;;28.65;18.23;;;6.70;94.00;;;;;;5064437;28;20222;-40
2021/03/02 09:17:07;;;;;;;25.90;16.92;;;6.80;93.70;;;;;;5062619;28;20021;-41
2021/03/02 09:19:44;;;;;;;25.42;17.48;;;6.80;93.50;;;;;;5064376;28;20028;-39
2021/03/02 09:22:33;;;;;;;24.55;15.95;;;6.90;93.60;;;;;;5064775;28;20100;-40
2021/03/02 09:25:02;;;;;;;22.95;14.90;;;6.90;93.60;;;;;;5063821;28;20040;-41
2021/03/02 09:27:34;;;;;;;21.15;15.23;;;7.00;93.70;;;;;;5064661;28;20614;-41
2021/03/02 09:30:00;;;;;;;23.00;15.75;;;7.00;93.70;;;;;;5068536;28;20070;-40
2021/03/02 09:32:30;;;;;;;25.20;16.55;;;7.10;93.70;;;;;;5067930;28;20766;-40
2021/03/02 09:35:04;;;;;;;24.20;15.70;;;7.20;93.60;;;;;;5068025;28;20033;-40
2021/03/02 09:37:30;;;;;;;22.85;15.50;;;7.20;93.60;;;;;;5067794;28;20429;-40
2021/03/02 09:40:06;;;;;;;24.58;15.82;;;7.30;93.50;;;;;;5066687;28;20067;-40
2021/03/02 09:42:36;;;;;;;25.88;16.50;;;7.40;93.80;;;;;;5059503;28;20036;-39
2021/03/02 09:45:09;;;;;;;23.98;15.82;;;7.40;93.40;;;;;;5067689;28;20363;-40
2021/03/02 09:47:35;;;;;;;;;;;7.50;93.30;;;;;;5068408;28;20043;-39
2021/03/02 09:50:12;;;;;;;24.20;16.50;;;7.50;93.20;;;;;;5067323;28;19990;-38
2021/03/02 09:52:46;;;;;;;26.15;17.02;;;7.60;93.00;;;;;;5067145;28;20060;-39
2021/03/02 09:55:16;;;;;;;24.48;16.48;;;7.60;92.90;;;;;;5071672;28;20024;-39
2021/03/02 09:58:16;;;;;;;25.33;17.30;;;7.60;93.00;;;;;;5066574;28;20024;-40
2021/03/02 10:00:53;;;;;;;25.48;16.17;;;7.60;93.10;;;;;;5066722;28;20025;-39
2021/03/02 10:03:35;;;;;;;24.48;16.23;;;7.70;93.10;;;;;;5067038;28;20103;-39
2021/03/02 10:06:06;;;;;;;24.50;16.05;;;7.70;93.10;;;;;;5067123;28;20025;-39
2021/03/02 10:08:36;;;;;;;23.55;16.05;;;7.80;93.10;;;;;;5062965;28;20028;-41
2021/03/02 10:11:20;;;;;;;25.40;15.55;;;7.90;93.10;;;;;;5067304;28;20028;-40
2021/03/02 10:13:45;;;;;;;24.30;15.50;;;7.90;93.10;;;;;;5067207;28;20021;-41
2021/03/02 10:16:15;;;;;;;23.45;16.33;;;8.00;93.00;;;;;;5067234;28;20036;-39
2021/03/02 10:18:48;;;;;;;24.90;15.88;;;8.10;92.90;;;;;;5066610;28;20059;-41
2021/03/02 10:21:14;;;;;;;23.35;16.05;;;8.20;92.80;;;;;;5066073;28;20020;-41
2021/03/02 10:23:45;;;;;;;25.00;16.48;;;8.20;92.70;;;;;;5066640;28;20035;-40
2021/03/02 10:26:17;;;;;;;25.83;17.08;;;8.30;92.60;;;;;;5067782;28;20629;-40
2021/03/02 10:28:43;;;;;;;24.77;16.25;;;8.30;92.60;;;;;;5067601;28;20460;-40
2021/03/02 10:31:12;;;;;;;26.45;17.80;;;8.40;92.50;;;;;;5066170;28;20075;-36
2021/03/02 10:33:37;;;;;;;22.63;16.20;;;8.50;92.50;;;;;;5064833;28;20013;-41
2021/03/02 10:36:03;;;;;;;25.60;15.68;;;8.50;92.40;;;;;;5067456;28;20129;-41
2021/03/02 10:38:29;;;;;;;23.35;15.48;;;8.60;92.40;;;;;;5067232;28;20021;-41
2021/03/02 10:40:55;;;;;;;23.05;15.57;;;8.70;92.70;;;;;;5067223;28;20048;-40
2021/03/02 10:43:20;;;;;;;23.05;15.13;;;8.70;92.30;;;;;;5067158;28;20040;-39
2021/03/02 10:45:46;;;;;;;21.98;15.18;;;8.80;92.20;;;;;;5067215;28;20507;-41
2021/03/02 10:48:11;;;;;;;21.25;14.98;;;8.80;92.50;;;;;;5067236;28;20028;-41
2021/03/02 10:50:37;;;;;;;20.48;13.70;;;8.90;92.20;;;;;;5066707;28;20066;-42
2021/03/02 10:53:03;;;;;;;23.17;15.15;;;8.90;92.20;;;;;;5066291;28;20092;-40
2021/03/02 10:55:29;;;;;;;24.13;16.10;;;9.00;92.10;;;;;;5066907;28;20447;-41
2021/03/02 10:57:55;;;;;;;17.80;13.35;;;9.10;92.10;;;;;;5066380;28;20127;-40
2021/03/02 11:00:20;;;;;;;22.05;15.02;;;9.20;92.10;;;;;;5065785;28;20036;-39
2021/03/02 11:02:46;;;;;;;22.50;15.43;;;9.30;92.20;;;;;;5066868;28;20032;-40
2021/03/02 11:05:12;;;;;;;22.85;14.60;;;9.40;91.80;;;;;;5066758;28;20078;-39
2021/03/02 11:07:38;;;;;;;22.38;15.18;;;9.40;91.70;;;;;;5065945;28;20440;-39
2021/03/02 11:10:08;;;;;;;22.95;14.85;;;9.50;91.60;;;;;;5066419;28;20225;-40
2021/03/02 11:12:39;;;;;;;19.80;13.98;;;9.60;91.50;;;;;;5065909;28;20025;-40
2021/03/02 11:15:06;;;;;;;19.02;13.70;;;9.60;91.50;;;;;;5055025;28;20045;-40
2021/03/02 11:17:32;;;;;;;17.90;12.90;;;9.70;91.50;;;;;;5060567;28;20098;-40
2021/03/02 11:19:57;;;;;;;20.50;13.55;;;9.80;91.50;;;;;;5064801;28;20496;-39
2021/03/02 11:22:23;;;;;;;19.17;13.52;;;9.80;91.40;;;;;;5065278;28;20496;-40
2021/03/02 11:24:51;;;;;;;16.20;11.30;;;9.90;91.30;;;;;;5065025;28;20906;-40
2021/03/02 11:27:17;;;;;;;15.48;11.40;;;10.00;91.20;;;;;;5065064;28;20023;-39
2021/03/02 11:29:43;;;;;;;15.60;11.15;;;10.10;91.20;;;;;;5064437;28;20037;-40
2021/03/02 11:32:08;;;;;;;14.35;10.18;;;10.20;91.00;;;;;;5060782;28;20024;-41
2021/03/02 11:34:36;;;;;;;17.02;11.15;;;10.30;90.80;;;;;;5054944;28;20041;-40
2021/03/02 11:37:02;;;;;;;14.80;11.20;;;10.40;90.70;;;;;;5065617;28;20146;-40
2021/03/02 11:39:28;;;;;;;19.25;11.98;;;10.50;90.50;;;;;;5065914;28;20071;-41
2021/03/02 11:41:53;;;;;;;16.70;11.35;;;10.60;90.30;;;;;;5065350;28;20031;-41
2021/03/02 11:44:19;;;;;;;16.02;12.38;;;10.70;90.10;;;;;;5062807;28;20036;-40
2021/03/02 11:46:44;;;;;;;12.77;10.25;;;10.80;89.20;;;;;;5062805;28;20036;-40
2021/03/02 11:49:10;;;;;;;17.33;11.27;;;10.90;89.20;;;;;;5064299;28;20031;-41
2021/03/02 11:51:35;;;;;;;14.73;10.65;;;10.90;89.20;;;;;;5064706;28;20403;-38
2021/03/02 11:54:01;;;;;;;17.40;10.73;;;10.90;89.30;;;;;;5065531;28;20115;-40
2021/03/02 11:56:26;;;;;;;19.25;11.98;;;11.00;89.00;;;;;;5061662;28;20021;-39
2021/03/02 11:58:52;;;;;;;18.92;11.98;;;11.10;88.70;;;;;;5063829;28;20063;-41
2021/03/02 12:01:18;;;;;;;15.85;10.93;;;11.10;88.70;;;;;;5064915;28;20037;-41
2021/03/02 12:03:46;;;;;;;14.80;11.10;;;11.10;88.80;;;;;;5062706;28;20162;-40
2021/03/02 12:06:12;;;;;;;16.15;10.88;;;11.20;88.60;;;;;;5064437;28;20120;-39
2021/03/02 12:08:38;;;;;;;15.95;11.57;;;11.20;88.80;;;;;;5064547;28;20024;-41
2021/03/02 12:11:03;;;;;;;15.20;11.00;;;11.20;88.60;;;;;;5063256;28;20044;-41
2021/03/02 12:13:29;;;;;;;14.40;10.55;;;11.30;88.10;;;;;;5064193;28;20024;-40
2021/03/02 12:15:55;;;;;;;14.63;10.48;;;11.40;87.90;;;;;;5063825;28;20025;-39
2021/03/02 12:18:22;;;;;;;15.50;10.63;;;11.40;87.90;;;;;;5062666;28;20808;-40
2021/03/02 12:20:47;;;;;;;16.48;10.25;;;11.40;87.80;;;;;;5063186;28;20828;-38
2021/03/02 12:23:13;;;;;;;15.85;11.88;;;11.50;87.70;;;;;;5062887;28;20029;-39
2021/03/02 12:25:38;;;;;;;17.77;11.25;;;11.60;87.70;;;;;;5062475;28;20041;-39
2021/03/02 12:28:04;;;;;;;17.25;11.77;;;11.60;86.70;;;;;;5062700;28;20032;-37
2021/03/02 12:30:30;;;;;;;17.27;11.93;;;11.70;86.50;;;;;;5062350;28;20928;-39
2021/03/02 12:33:00;;;;;;;18.95;13.10;;;11.80;85.90;;;;;;5059406;28;20024;-39
2021/03/02 12:35:26;;;;;;;16.35;11.73;;;11.80;85.20;;;;;;5061976;28;20036;-39
2021/03/02 12:37:52;;;;;;;14.82;11.40;;;11.90;85.10;;;;;;5063532;28;20483;-39
2021/03/02 12:40:18;;;;;;;17.95;11.48;;;11.90;85.20;;;;;;5064739;28;20025;-40
2021/03/02 12:42:43;;;;;;;17.23;11.60;;;12.00;85.40;;;;;;5064273;28;20017;-39